sensor_id;sensor_type;location;lat;lon;timestamp;pressure;altitude;pressure_sealevel;temperature;humidity
66857;BME280;53766;50.280;19.160;2024-03-08T00:00:14;99061.38;;;16.39;48.28
66857;BME280;53766;50.280;19.160;2024-03-08T00:03:05;99064.03;;;16.39;48.26
66857;BME280;53766;50.280;19.160;2024-03-08T00:05:33;99073.03;;;16.38;48.38
66857;BME280;53766;50.280;19.160;2024-03-08T00:08:00;99066.84;;;16.37;48.40
66857;BME280;53766;50.280;19.160;2024-03-08T00:10:28;99068.69;;;16.37;48.34
66857;BME280;53766;50.280;19.160;2024-03-08T00:12:56;99063.22;;;16.38;48.42
66857;BME280;53766;50.280;19.160;2024-03-08T00:15:25;99062.41;;;16.38;48.32
66857;BME280;53766;50.280;19.160;2024-03-08T00:17:52;99059.91;;;16.36;48.41
66857;BME280;53766;50.280;19.160;2024-03-08T00:20:21;99058.06;;;16.37;48.36
66857;BME280;53766;50.280;19.160;2024-03-08T00:22:48;99058.06;;;16.37;48.40
66857;BME280;53766;50.280;19.160;2024-03-08T00:25:16;99061.53;;;16.37;48.29
66857;BME280;53766;50.280;19.160;2024-03-08T00:27:44;99057.25;;;16.36;48.35
66857;BME280;53766;50.280;19.160;2024-03-08T00:30:12;99055.59;;;16.35;48.37
66857;BME280;53766;50.280;19.160;2024-03-08T00:32:42;99051.94;;;16.36;48.29
66857;BME280;53766;50.280;19.160;2024-03-08T00:35:10;99060.91;;;16.35;48.23
66857;BME280;53766;50.280;19.160;2024-03-08T00:37:40;99054.59;;;16.36;48.35
66857;BME280;53766;50.280;19.160;2024-03-08T00:40:09;99050.09;;;16.37;48.21
66857;BME280;53766;50.280;19.160;2024-03-08T00:42:38;99050.09;;;16.37;48.36
66857;BME280;53766;50.280;19.160;2024-03-08T00:45:08;99048.63;;;16.34;48.50
66857;BME280;53766;50.280;19.160;2024-03-08T00:47:35;99049.44;;;16.35;48.49
66857;BME280;53766;50.280;19.160;2024-03-08T00:50:04;99044.97;;;16.35;48.30
66857;BME280;53766;50.280;19.160;2024-03-08T00:52:31;99042.31;;;16.35;48.31
66857;BME280;53766;50.280;19.160;2024-03-08T00:54:59;99037.97;;;16.34;48.45
66857;BME280;53766;50.280;19.160;2024-03-08T00:57:27;99046.97;;;16.33;48.36
66857;BME280;53766;50.280;19.160;2024-03-08T00:59:55;99043.28;;;16.34;48.41
66857;BME280;53766;50.280;19.160;2024-03-08T01:02:23;99042.47;;;16.34;48.29
66857;BME280;53766;50.280;19.160;2024-03-08T01:04:51;99040.81;;;16.33;48.45
66857;BME280;53766;50.280;19.160;2024-03-08T01:07:18;99039.16;;;16.32;48.53
66857;BME280;53766;50.280;19.160;2024-03-08T01:09:46;99037.50;;;16.31;48.54
66857;BME280;53766;50.280;19.160;2024-03-08T01:12:13;99035.03;;;16.29;48.54
66857;BME280;53766;50.280;19.160;2024-03-08T01:14:42;99031.53;;;16.29;48.34
66857;BME280;53766;50.280;19.160;2024-03-08T01:17:10;99031.34;;;16.30;48.35
66857;BME280;53766;50.280;19.160;2024-03-08T01:19:38;99027.06;;;16.29;48.56
66857;BME280;53766;50.280;19.160;2024-03-08T01:22:05;99014.75;;;16.28;48.41
66857;BME280;53766;50.280;19.160;2024-03-08T01:24:33;99021.91;;;16.28;48.63
66857;BME280;53766;50.280;19.160;2024-03-08T01:27:02;99016.59;;;16.28;48.33
66857;BME280;53766;50.280;19.160;2024-03-08T01:29:30;99012.09;;;16.28;48.44
66857;BME280;53766;50.280;19.160;2024-03-08T01:31:58;99013.13;;;16.27;48.43
66857;BME280;53766;50.280;19.160;2024-03-08T01:34:27;99011.44;;;16.26;48.35
66857;BME280;53766;50.280;19.160;2024-03-08T01:36:56;99007.16;;;16.25;48.37
66857;BME280;53766;50.280;19.160;2024-03-08T01:39:24;99007.97;;;16.25;48.38
66857;BME280;53766;50.280;19.160;2024-03-08T01:41:51;99003.47;;;16.26;48.45
66857;BME280;53766;50.280;19.160;2024-03-08T01:44:19;98998.16;;;16.26;48.29
66857;BME280;53766;50.280;19.160;2024-03-08T01:46:49;98995.88;;;16.23;48.53
66857;BME280;53766;50.280;19.160;2024-03-08T01:49:18;98998.53;;;16.23;48.50
66857;BME280;53766;50.280;19.160;2024-03-08T01:51:48;98994.84;;;16.24;48.36
66857;BME280;53766;50.280;19.160;2024-03-08T01:54:18;98994.19;;;16.22;48.53
66857;BME280;53766;50.280;19.160;2024-03-08T01:56:47;98992.38;;;16.22;48.77
66857;BME280;53766;50.280;19.160;2024-03-08T01:59:16;98995.22;;;16.21;48.42
66857;BME280;53766;50.280;19.160;2024-03-08T02:01:44;98996.84;;;16.22;48.48
66857;BME280;53766;50.280;19.160;2024-03-08T02:04:13;98984.59;;;16.21;48.47
66857;BME280;53766;50.280;19.160;2024-03-08T02:06:41;98988.22;;;16.20;48.60
66857;BME280;53766;50.280;19.160;2024-03-08T02:09:08;98982.09;;;16.19;48.68
66857;BME280;53766;50.280;19.160;2024-03-08T02:11:37;98989.91;;;16.21;48.43
66857;BME280;53766;50.280;19.160;2024-03-08T02:14:05;98987.25;;;16.21;48.41
66857;BME280;53766;50.280;19.160;2024-03-08T02:16:34;98989.06;;;16.20;48.44
66857;BME280;53766;50.280;19.160;2024-03-08T02:19:03;98982.91;;;16.20;48.38
66857;BME280;53766;50.280;19.160;2024-03-08T02:21:30;98989.06;;;16.20;48.45
66857;BME280;53766;50.280;19.160;2024-03-08T02:23:58;98980.09;;;16.21;48.35
66857;BME280;53766;50.280;19.160;2024-03-08T02:26:26;98980.91;;;16.22;48.39
66857;BME280;53766;50.280;19.160;2024-03-08T02:28:55;98985.41;;;16.21;48.41
66857;BME280;53766;50.280;19.160;2024-03-08T02:31:22;98982.91;;;16.20;48.36
66857;BME280;53766;50.280;19.160;2024-03-08T02:33:50;98983.09;;;16.18;48.35
66857;BME280;53766;50.280;19.160;2024-03-08T02:36:18;98981.28;;;16.19;48.32
66857;BME280;53766;50.280;19.160;2024-03-08T02:38:46;98980.25;;;16.20;48.31
66857;BME280;53766;50.280;19.160;2024-03-08T02:41:14;98981.28;;;16.19;48.31
66857;BME280;53766;50.280;19.160;2024-03-08T02:43:42;98978.44;;;16.20;48.37
66857;BME280;53766;50.280;19.160;2024-03-08T02:46:09;98984.59;;;16.21;48.29
66857;BME280;53766;50.280;19.160;2024-03-08T02:48:37;98981.28;;;16.19;48.40
66857;BME280;53766;50.280;19.160;2024-03-08T02:51:05;98975.94;;;16.19;48.22
66857;BME280;53766;50.280;19.160;2024-03-08T02:53:33;98982.28;;;16.18;48.30
66857;BME280;53766;50.280;19.160;2024-03-08T02:56:02;98979.63;;;16.18;48.28
66857;BME280;53766;50.280;19.160;2024-03-08T02:58:30;98983.09;;;16.18;48.28
66857;BME280;53766;50.280;19.160;2024-03-08T03:00:58;98976.78;;;16.19;48.20
66857;BME280;53766;50.280;19.160;2024-03-08T03:03:25;98981.28;;;16.19;47.96
66857;BME280;53766;50.280;19.160;2024-03-08T03:05:54;98983.94;;;16.19;48.18
66857;BME280;53766;50.280;19.160;2024-03-08T03:08:23;98983.94;;;16.19;48.24
66857;BME280;53766;50.280;19.160;2024-03-08T03:10:51;98983.94;;;16.19;48.02
66857;BME280;53766;50.280;19.160;2024-03-08T03:13:19;98984.09;;;16.17;48.19
66857;BME280;53766;50.280;19.160;2024-03-08T03:15:46;98978.78;;;16.17;48.32
66857;BME280;53766;50.280;19.160;2024-03-08T03:18:14;98983.28;;;16.17;48.34
66857;BME280;53766;50.280;19.160;2024-03-08T03:20:43;98985.94;;;16.17;48.20
66857;BME280;53766;50.280;19.160;2024-03-08T03:23:11;98983.28;;;16.17;48.14
66857;BME280;53766;50.280;19.160;2024-03-08T03:25:43;98981.63;;;16.16;48.38
66857;BME280;53766;50.280;19.160;2024-03-08T03:28:11;98979.97;;;16.15;48.31
66857;BME280;53766;50.280;19.160;2024-03-08T03:30:42;98986.94;;;16.16;48.23
66857;BME280;53766;50.280;19.160;2024-03-08T03:33:09;98986.09;;;16.15;48.18
66857;BME280;53766;50.280;19.160;2024-03-08T03:35:40;98982.63;;;16.15;48.18
66857;BME280;53766;50.280;19.160;2024-03-08T03:38:09;98979.97;;;16.15;48.19
66857;BME280;53766;50.280;19.160;2024-03-08T03:40:39;98980.78;;;16.15;48.12
66857;BME280;53766;50.280;19.160;2024-03-08T03:43:08;98974.66;;;16.15;48.28
66857;BME280;53766;50.280;19.160;2024-03-08T03:45:39;98977.31;;;16.15;48.25
66857;BME280;53766;50.280;19.160;2024-03-08T03:48:07;98973.00;;;16.14;48.20
66857;BME280;53766;50.280;19.160;2024-03-08T03:50:38;98973.00;;;16.14;47.93
66857;BME280;53766;50.280;19.160;2024-03-08T03:53:08;98977.47;;;16.13;48.07
66857;BME280;53766;50.280;19.160;2024-03-08T03:55:37;98971.34;;;16.13;48.28
66857;BME280;53766;50.280;19.160;2024-03-08T03:58:08;98967.84;;;16.12;48.24
66857;BME280;53766;50.280;19.160;2024-03-08T04:00:38;98967.84;;;16.12;48.16
66857;BME280;53766;50.280;19.160;2024-03-08T04:03:06;98963.38;;;16.13;48.14
66857;BME280;53766;50.280;19.160;2024-03-08T04:05:35;98968.03;;;16.11;48.08
66857;BME280;53766;50.280;19.160;2024-03-08T04:08:03;98972.34;;;16.12;48.35
66857;BME280;53766;50.280;19.160;2024-03-08T04:10:30;98966.38;;;16.10;48.05
66857;BME280;53766;50.280;19.160;2024-03-08T04:13:06;98962.72;;;16.11;48.16
66857;BME280;53766;50.280;19.160;2024-03-08T04:15:34;98963.72;;;16.10;48.18
66857;BME280;53766;50.280;19.160;2024-03-08T04:18:02;98963.53;;;16.11;48.01
66857;BME280;53766;50.280;19.160;2024-03-08T04:20:29;98964.38;;;16.12;48.00
66857;BME280;53766;50.280;19.160;2024-03-08T04:22:58;98963.53;;;16.11;48.12
66857;BME280;53766;50.280;19.160;2024-03-08T04:25:25;98959.06;;;16.12;48.08
66857;BME280;53766;50.280;19.160;2024-03-08T04:27:54;98959.06;;;16.12;48.07
66857;BME280;53766;50.280;19.160;2024-03-08T04:30:21;98961.72;;;16.12;48.04
66857;BME280;53766;50.280;19.160;2024-03-08T04:32:49;98957.41;;;16.11;48.08
66857;BME280;53766;50.280;19.160;2024-03-08T04:35:17;98959.06;;;16.12;48.06
66857;BME280;53766;50.280;19.160;2024-03-08T04:37:45;98960.88;;;16.11;47.89
66857;BME280;53766;50.280;19.160;2024-03-08T04:40:12;98961.72;;;16.12;48.03
66857;BME280;53766;50.280;19.160;2024-03-08T04:42:40;98958.22;;;16.11;47.86
66857;BME280;53766;50.280;19.160;2024-03-08T04:45:10;98959.06;;;16.12;47.96
66857;BME280;53766;50.280;19.160;2024-03-08T04:47:41;98967.03;;;16.12;47.82
66857;BME280;53766;50.280;19.160;2024-03-08T04:50:09;98960.88;;;16.11;47.89
66857;BME280;53766;50.280;19.160;2024-03-08T04:52:37;98968.03;;;16.11;47.88
66857;BME280;53766;50.280;19.160;2024-03-08T04:55:05;98965.56;;;16.09;47.91
66857;BME280;53766;50.280;19.160;2024-03-08T04:57:33;98969.69;;;16.12;47.92
66857;BME280;53766;50.280;19.160;2024-03-08T05:00:02;98966.03;;;16.13;47.78
66857;BME280;53766;50.280;19.160;2024-03-08T05:02:35;98968.03;;;16.11;47.92
66857;BME280;53766;50.280;19.160;2024-03-08T05:05:02;98966.38;;;16.10;47.92
66857;BME280;53766;50.280;19.160;2024-03-08T05:07:30;98968.03;;;16.11;47.79
66857;BME280;53766;50.280;19.160;2024-03-08T05:09:58;98963.72;;;16.10;48.04
66857;BME280;53766;50.280;19.160;2024-03-08T05:12:26;98966.38;;;16.10;47.95
66857;BME280;53766;50.280;19.160;2024-03-08T05:14:54;98965.56;;;16.09;48.01
66857;BME280;53766;50.280;19.160;2024-03-08T05:17:22;98968.03;;;16.11;48.12
66857;BME280;53766;50.280;19.160;2024-03-08T05:19:51;98970.03;;;16.09;48.00
66857;BME280;53766;50.280;19.160;2024-03-08T05:22:19;98970.88;;;16.09;47.97
66857;BME280;53766;50.280;19.160;2024-03-08T05:24:46;98976.19;;;16.09;48.12
66857;BME280;53766;50.280;19.160;2024-03-08T05:27:14;98985.97;;;16.09;48.18
66857;BME280;53766;50.280;19.160;2024-03-08T05:29:42;98981.50;;;16.09;48.20
66857;BME280;53766;50.280;19.160;2024-03-08T05:32:09;98978.00;;;16.09;48.41
66857;BME280;53766;50.280;19.160;2024-03-08T05:34:37;98975.34;;;16.09;48.35
66857;BME280;53766;50.280;19.160;2024-03-08T05:37:05;98975.34;;;16.09;48.34
66857;BME280;53766;50.280;19.160;2024-03-08T05:39:34;98977.00;;;16.10;48.49
66857;BME280;53766;50.280;19.160;2024-03-08T05:42:02;98976.81;;;16.11;48.74
66857;BME280;53766;50.280;19.160;2024-03-08T05:44:29;98977.66;;;16.12;48.96
66857;BME280;53766;50.280;19.160;2024-03-08T05:46:58;98977.00;;;16.10;48.80
66857;BME280;53766;50.280;19.160;2024-03-08T05:49:26;98979.69;;;16.10;48.92
66857;BME280;53766;50.280;19.160;2024-03-08T05:51:53;98982.34;;;16.10;48.86
66857;BME280;53766;50.280;19.160;2024-03-08T05:54:21;98992.97;;;16.10;48.80
66857;BME280;53766;50.280;19.160;2024-03-08T05:56:53;98978.66;;;16.11;48.96
66857;BME280;53766;50.280;19.160;2024-03-08T05:59:21;98974.34;;;16.10;48.83
66857;BME280;53766;50.280;19.160;2024-03-08T06:01:51;98986.34;;;16.06;49.03
66857;BME280;53766;50.280;19.160;2024-03-08T06:04:18;98989.31;;;16.02;48.81
66857;BME280;53766;50.280;19.160;2024-03-08T06:06:47;98984.53;;;15.98;48.23
66857;BME280;53766;50.280;19.160;2024-03-08T06:09:18;98982.41;;;15.93;48.33
66857;BME280;53766;50.280;19.160;2024-03-08T06:11:52;98985.44;;;15.90;47.98
66857;BME280;53766;50.280;19.160;2024-03-08T06:14:21;98984.28;;;15.84;47.85
66857;BME280;53766;50.280;19.160;2024-03-08T06:16:49;98989.13;;;15.81;47.54
66857;BME280;53766;50.280;19.160;2024-03-08T06:19:19;98991.97;;;15.79;47.29
66857;BME280;53766;50.280;19.160;2024-03-08T06:21:47;98989.47;;;15.78;46.78
66857;BME280;53766;50.280;19.160;2024-03-08T06:24:15;98984.16;;;15.78;46.42
66857;BME280;53766;50.280;19.160;2024-03-08T06:26:43;98989.13;;;15.81;45.82
66857;BME280;53766;50.280;19.160;2024-03-08T06:29:10;98983.81;;;15.81;45.80
66857;BME280;53766;50.280;19.160;2024-03-08T06:31:38;98985.47;;;15.82;46.46
66857;BME280;53766;50.280;19.160;2024-03-08T06:34:06;98978.31;;;15.82;46.10
66857;BME280;53766;50.280;19.160;2024-03-08T06:36:38;98982.66;;;15.83;46.07
66857;BME280;53766;50.280;19.160;2024-03-08T06:39:06;98987.97;;;15.83;46.39
66857;BME280;53766;50.280;19.160;2024-03-08T06:41:37;98995.72;;;15.85;46.42
66857;BME280;53766;50.280;19.160;2024-03-08T06:44:05;98991.44;;;15.84;46.06
66857;BME280;53766;50.280;19.160;2024-03-08T06:46:35;98990.41;;;15.85;46.34
66857;BME280;53766;50.280;19.160;2024-03-08T06:49:03;98991.28;;;15.86;46.21
66857;BME280;53766;50.280;19.160;2024-03-08T06:51:31;98983.09;;;15.87;46.21
66857;BME280;53766;50.280;19.160;2024-03-08T06:53:59;98975.34;;;15.86;46.33
66857;BME280;53766;50.280;19.160;2024-03-08T06:56:27;98983.09;;;15.87;46.26
66857;BME280;53766;50.280;19.160;2024-03-08T06:58:55;98980.44;;;15.87;46.18
66857;BME280;53766;50.280;19.160;2024-03-08T07:01:23;98983.09;;;15.87;46.40
66857;BME280;53766;50.280;19.160;2024-03-08T07:03:50;98979.47;;;15.88;46.40
66857;BME280;53766;50.280;19.160;2024-03-08T07:06:20;98976.00;;;15.88;46.24
66857;BME280;53766;50.280;19.160;2024-03-08T07:08:48;98976.81;;;15.88;46.34
66857;BME280;53766;50.280;19.160;2024-03-08T07:11:16;98980.28;;;15.89;46.50
66857;BME280;53766;50.280;19.160;2024-03-08T07:13:46;98977.47;;;15.90;46.42
66857;BME280;53766;50.280;19.160;2024-03-08T07:16:13;98978.28;;;15.91;46.48
66857;BME280;53766;50.280;19.160;2024-03-08T07:18:41;98975.78;;;15.89;46.50
66857;BME280;53766;50.280;19.160;2024-03-08T07:21:11;98978.28;;;15.91;46.51
66857;BME280;53766;50.280;19.160;2024-03-08T07:23:39;98972.97;;;15.91;46.43
66857;BME280;53766;50.280;19.160;2024-03-08T07:26:25;98972.97;;;15.91;46.52
66857;BME280;53766;50.280;19.160;2024-03-08T07:28:53;98973.78;;;15.91;46.35
66857;BME280;53766;50.280;19.160;2024-03-08T07:31:24;98970.16;;;15.92;46.38
66857;BME280;53766;50.280;19.160;2024-03-08T07:34:10;98978.13;;;15.92;46.31
66857;BME280;53766;50.280;19.160;2024-03-08T07:36:38;98977.09;;;15.93;46.37
66857;BME280;53766;50.280;19.160;2024-03-08T07:39:06;98987.72;;;15.93;46.57
66857;BME280;53766;50.280;19.160;2024-03-08T07:41:39;98991.41;;;15.92;46.54
66857;BME280;53766;50.280;19.160;2024-03-08T07:44:09;98990.38;;;15.93;46.46
66857;BME280;53766;50.280;19.160;2024-03-08T07:46:37;98987.72;;;15.93;46.52
66857;BME280;53766;50.280;19.160;2024-03-08T07:49:05;98995.53;;;15.95;46.41
66857;BME280;53766;50.280;19.160;2024-03-08T07:51:33;98990.22;;;15.95;46.43
66857;BME280;53766;50.280;19.160;2024-03-08T07:54:03;98990.22;;;15.95;46.63
66857;BME280;53766;50.280;19.160;2024-03-08T07:56:32;98992.72;;;15.96;46.29
66857;BME280;53766;50.280;19.160;2024-03-08T07:58:59;98994.72;;;15.94;46.53
66857;BME280;53766;50.280;19.160;2024-03-08T08:01:27;99001.66;;;15.95;46.45
66857;BME280;53766;50.280;19.160;2024-03-08T08:03:55;99001.66;;;15.95;46.40
66857;BME280;53766;50.280;19.160;2024-03-08T08:06:24;98995.53;;;15.95;46.63
66857;BME280;53766;50.280;19.160;2024-03-08T08:08:52;98993.69;;;15.95;46.43
66857;BME280;53766;50.280;19.160;2024-03-08T08:11:20;98991.03;;;15.95;46.31
66857;BME280;53766;50.280;19.160;2024-03-08T08:13:48;98994.72;;;15.94;46.54
66857;BME280;53766;50.280;19.160;2024-03-08T08:16:16;98991.03;;;15.95;46.71
66857;BME280;53766;50.280;19.160;2024-03-08T08:18:43;98991.84;;;15.96;46.50
66857;BME280;53766;50.280;19.160;2024-03-08T08:21:13;98990.22;;;15.95;46.62
66857;BME280;53766;50.280;19.160;2024-03-08T08:23:41;98984.09;;;15.94;46.37
66857;BME280;53766;50.280;19.160;2024-03-08T08:26:10;98978.78;;;15.94;46.43
66857;BME280;53766;50.280;19.160;2024-03-08T08:28:38;98988.53;;;15.94;46.37
66857;BME280;53766;50.280;19.160;2024-03-08T08:31:09;98987.72;;;15.93;46.46
66857;BME280;53766;50.280;19.160;2024-03-08T08:33:36;98989.41;;;15.94;46.51
66857;BME280;53766;50.280;19.160;2024-03-08T08:36:05;98984.09;;;15.94;46.56
66857;BME280;53766;50.280;19.160;2024-03-08T08:38:32;98985.88;;;15.94;46.38
66857;BME280;53766;50.280;19.160;2024-03-08T08:41:00;98979.59;;;15.95;46.53
66857;BME280;53766;50.280;19.160;2024-03-08T08:43:29;98985.88;;;15.94;46.57
66857;BME280;53766;50.280;19.160;2024-03-08T08:45:57;98984.09;;;15.94;46.42
66857;BME280;53766;50.280;19.160;2024-03-08T08:48:24;98980.41;;;15.95;46.45
66857;BME280;53766;50.280;19.160;2024-03-08T08:50:52;98992.72;;;15.96;46.38
66857;BME280;53766;50.280;19.160;2024-03-08T08:53:20;98992.72;;;15.96;46.55
66857;BME280;53766;50.280;19.160;2024-03-08T08:55:48;98997.81;;;15.98;46.58
66857;BME280;53766;50.280;19.160;2024-03-08T08:58:15;98995.16;;;15.98;46.54
66857;BME280;53766;50.280;19.160;2024-03-08T09:00:43;98990.72;;;15.98;46.38
66857;BME280;53766;50.280;19.160;2024-03-08T09:03:11;98992.34;;;15.99;46.56
66857;BME280;53766;50.280;19.160;2024-03-08T09:05:39;98982.75;;;15.98;46.63
66857;BME280;53766;50.280;19.160;2024-03-08T09:08:12;98983.56;;;15.99;46.40
66857;BME280;53766;50.280;19.160;2024-03-08T09:10:40;98979.06;;;15.99;46.29
66857;BME280;53766;50.280;19.160;2024-03-08T09:13:08;98974.75;;;15.98;46.39
66857;BME280;53766;50.280;19.160;2024-03-08T09:15:44;98981.72;;;15.99;46.26
66857;BME280;53766;50.280;19.160;2024-03-08T09:18:12;98977.22;;;16.00;46.40
66857;BME280;53766;50.280;19.160;2024-03-08T09:20:40;98968.44;;;15.99;46.27
66857;BME280;53766;50.280;19.160;2024-03-08T09:23:08;98972.75;;;16.00;46.42
66857;BME280;53766;50.280;19.160;2024-03-08T09:25:36;98980.53;;;16.02;46.18
66857;BME280;53766;50.280;19.160;2024-03-08T09:28:04;98969.91;;;16.02;46.36
66857;BME280;53766;50.280;19.160;2024-03-08T09:30:33;98967.09;;;16.03;46.30
66857;BME280;53766;50.280;19.160;2024-03-08T09:33:02;98966.72;;;16.07;46.14
66857;BME280;53766;50.280;19.160;2024-03-08T09:35:30;98959.41;;;16.09;46.32
66857;BME280;53766;50.280;19.160;2024-03-08T09:37:58;98961.06;;;16.10;46.20
66857;BME280;53766;50.280;19.160;2024-03-08T09:40:27;98962.38;;;16.14;46.25
66857;BME280;53766;50.280;19.160;2024-03-08T09:42:55;98969.50;;;16.13;46.12
66857;BME280;53766;50.280;19.160;2024-03-08T09:45:24;98958.72;;;16.15;45.95
66857;BME280;53766;50.280;19.160;2024-03-08T09:47:52;98953.38;;;16.15;46.15
66857;BME280;53766;50.280;19.160;2024-03-08T09:50:22;98951.38;;;16.17;45.94
66857;BME280;53766;50.280;19.160;2024-03-08T09:52:49;98945.91;;;16.18;46.10
66857;BME280;53766;50.280;19.160;2024-03-08T09:55:18;98945.69;;;16.20;46.14
66857;BME280;53766;50.280;19.160;2024-03-08T09:57:51;98945.69;;;16.20;45.95
66857;BME280;53766;50.280;19.160;2024-03-08T10:00:37;98936.75;;;16.21;46.03
66857;BME280;53766;50.280;19.160;2024-03-08T10:03:05;98940.88;;;16.23;46.07
66857;BME280;53766;50.280;19.160;2024-03-08T10:05:33;98938.88;;;16.25;45.91
66857;BME280;53766;50.280;19.160;2024-03-08T10:08:00;98940.69;;;16.25;46.03
66857;BME280;53766;50.280;19.160;2024-03-08T10:10:28;98939.69;;;16.26;46.03
66857;BME280;53766;50.280;19.160;2024-03-08T10:12:55;98939.34;;;16.29;46.00
66857;BME280;53766;50.280;19.160;2024-03-08T10:15:24;98933.19;;;16.29;45.88
66857;BME280;53766;50.280;19.160;2024-03-08T10:17:55;98934.03;;;16.29;46.21
66857;BME280;53766;50.280;19.160;2024-03-08T10:20:24;98942.81;;;16.30;45.85
66857;BME280;53766;50.280;19.160;2024-03-08T10:22:51;98930.34;;;16.30;46.04
66857;BME280;53766;50.280;19.160;2024-03-08T10:25:36;98936.31;;;16.32;45.94
66857;BME280;53766;50.280;19.160;2024-03-08T10:28:04;98941.47;;;16.34;45.76
66857;BME280;53766;50.280;19.160;2024-03-08T10:30:32;98938.63;;;16.35;45.92
66857;BME280;53766;50.280;19.160;2024-03-08T10:32:59;98929.66;;;16.36;45.94
66857;BME280;53766;50.280;19.160;2024-03-08T10:35:28;98935.63;;;16.38;45.96
66857;BME280;53766;50.280;19.160;2024-03-08T10:37:56;98925.63;;;16.40;45.98
66857;BME280;53766;50.280;19.160;2024-03-08T10:40:28;98920.31;;;16.40;45.78
66857;BME280;53766;50.280;19.160;2024-03-08T10:42:57;98923.97;;;16.39;45.96
66857;BME280;53766;50.280;19.160;2024-03-08T10:45:37;98910.50;;;16.41;45.80
66857;BME280;53766;50.280;19.160;2024-03-08T10:50:38;98918.31;;;16.42;45.83
66857;BME280;53766;50.280;19.160;2024-03-08T10:53:06;98907.28;;;16.45;45.98
66857;BME280;53766;50.280;19.160;2024-03-08T10:55:36;98909.78;;;16.47;45.81
66857;BME280;53766;50.280;19.160;2024-03-08T10:58:07;98903.66;;;16.47;45.89
66857;BME280;53766;50.280;19.160;2024-03-08T11:00:36;98899.97;;;16.48;45.90
66857;BME280;53766;50.280;19.160;2024-03-08T11:03:04;98901.63;;;16.49;45.78
66857;BME280;53766;50.280;19.160;2024-03-08T11:08:02;98901.63;;;16.49;45.80
66857;BME280;53766;50.280;19.160;2024-03-08T11:10:31;98897.97;;;16.50;45.90
66857;BME280;53766;50.280;19.160;2024-03-08T11:13:00;98895.94;;;16.52;45.84
66857;BME280;53766;50.280;19.160;2024-03-08T11:15:29;98890.63;;;16.52;45.96
66857;BME280;53766;50.280;19.160;2024-03-08T11:17:58;98893.94;;;16.54;45.80
66857;BME280;53766;50.280;19.160;2024-03-08T11:20:27;98891.28;;;16.54;45.63
66857;BME280;53766;50.280;19.160;2024-03-08T11:23:00;98889.25;;;16.56;45.79
66857;BME280;53766;50.280;19.160;2024-03-08T11:30:38;98883.94;;;16.56;45.78
66857;BME280;53766;50.280;19.160;2024-03-08T11:33:11;98872.28;;;16.57;45.83
66857;BME280;53766;50.280;19.160;2024-03-08T11:35:40;98873.13;;;16.57;45.80
66857;BME280;53766;50.280;19.160;2024-03-08T11:38:09;98870.91;;;16.61;45.84
66857;BME280;53766;50.280;19.160;2024-03-08T11:40:37;98871.13;;;16.59;45.74
66857;BME280;53766;50.280;19.160;2024-03-08T11:43:07;98862.94;;;16.61;45.76
66857;BME280;53766;50.280;19.160;2024-03-08T11:45:35;98859.28;;;16.62;45.83
66857;BME280;53766;50.280;19.160;2024-03-08T11:48:04;98856.63;;;16.62;45.76
66857;BME280;53766;50.280;19.160;2024-03-08T11:50:32;98853.97;;;16.62;45.76
66857;BME280;53766;50.280;19.160;2024-03-08T11:53:01;98852.31;;;16.61;45.78
66857;BME280;53766;50.280;19.160;2024-03-08T11:55:31;98853.78;;;16.63;45.86
66857;BME280;53766;50.280;19.160;2024-03-08T11:58:03;98846.66;;;16.64;45.50
66857;BME280;53766;50.280;19.160;2024-03-08T12:00:31;98851.97;;;16.64;45.83
66857;BME280;53766;50.280;19.160;2024-03-08T12:03:09;98845.63;;;16.65;45.73
66857;BME280;53766;50.280;19.160;2024-03-08T12:05:39;98839.31;;;16.66;45.69
66857;BME280;53766;50.280;19.160;2024-03-08T12:08:07;98835.63;;;16.67;45.65
66857;BME280;53766;50.280;19.160;2024-03-08T12:10:36;98835.63;;;16.67;45.72
66857;BME280;53766;50.280;19.160;2024-03-08T12:13:06;98839.31;;;16.66;45.75
66857;BME280;53766;50.280;19.160;2024-03-08T12:15:40;98836.66;;;16.66;45.77
66857;BME280;53766;50.280;19.160;2024-03-08T12:18:08;98830.13;;;16.69;45.75
66857;BME280;53766;50.280;19.160;2024-03-08T12:20:38;98819.50;;;16.69;45.84
66857;BME280;53766;50.280;19.160;2024-03-08T12:23:13;98822.16;;;16.69;45.78
66857;BME280;53766;50.280;19.160;2024-03-08T12:25:41;98827.31;;;16.70;45.88
66857;BME280;53766;50.280;19.160;2024-03-08T12:28:11;98824.66;;;16.70;46.05
66857;BME280;53766;50.280;19.160;2024-03-08T12:30:46;98820.97;;;16.71;45.92
66857;BME280;53766;50.280;19.160;2024-03-08T12:33:15;98820.97;;;16.71;45.85
66857;BME280;53766;50.280;19.160;2024-03-08T12:35:54;98813.78;;;16.72;45.78
66857;BME280;53766;50.280;19.160;2024-03-08T12:38:24;98809.28;;;16.72;45.96
66857;BME280;53766;50.280;19.160;2024-03-08T12:40:55;98803.97;;;16.72;46.00
66857;BME280;53766;50.280;19.160;2024-03-08T12:43:24;98801.31;;;16.72;45.92
66857;BME280;53766;50.280;19.160;2024-03-08T12:45:52;98803.97;;;16.72;46.00
66857;BME280;53766;50.280;19.160;2024-03-08T12:48:20;98801.97;;;16.74;45.80
66857;BME280;53766;50.280;19.160;2024-03-08T12:50:48;98793.16;;;16.74;45.96
66857;BME280;53766;50.280;19.160;2024-03-08T12:53:18;98801.97;;;16.74;45.88
66857;BME280;53766;50.280;19.160;2024-03-08T12:55:45;98791.31;;;16.74;46.02
66857;BME280;53766;50.280;19.160;2024-03-08T12:58:13;98795.66;;;16.75;45.97
66857;BME280;53766;50.280;19.160;2024-03-08T13:00:41;98793.00;;;16.75;46.11
66857;BME280;53766;50.280;19.160;2024-03-08T13:03:10;98793.63;;;16.77;46.15
66857;BME280;53766;50.280;19.160;2024-03-08T13:05:39;98777.84;;;16.76;46.07
66857;BME280;53766;50.280;19.160;2024-03-08T13:08:08;98789.94;;;16.78;46.32